Time;durP1;ratioP1;P1;durP2;ratioP2;P2;SDS_P1;SDS_P2;PMS_P1;PMS_P2;Temp;Humidity;BMP_temperature;BMP_pressure;BME280_temperature;BME280_humidity;BME280_pressure;Samples;Min_cycle;Max_cycle;Signal;HPM_P1;HPM_P2
2023/12/02 00:03:20;;;;;;;21.23;14.07;;;;;;;-2.16;62.00;98835.13;10468333;28;20776;-70
2023/12/02 00:08:22;;;;;;;18.60;12.77;;;;;;;-2.03;62.38;98702.06;10455255;28;20238;-72
2023/12/02 00:13:24;;;;;;;19.67;13.03;;;;;;;-2.41;62.73;98813.53;10467855;28;20236;-72
2023/12/02 00:18:26;;;;;;;16.67;12.53;;;;;;;-1.46;60.63;98685.88;10468994;28;20245;-72
2023/12/02 00:23:28;;;;;;;19.13;13.97;;;;;;;-1.88;61.62;98704.34;10456187;28;20714;-72
2023/12/02 00:28:29;;;;;;;18.90;12.37;;;;;;;-2.18;61.58;98788.06;10470617;28;20610;-72
2023/12/02 00:33:31;;;;;;;17.03;11.60;;;;;;;-2.65;61.96;98910.66;10470452;28;20271;-72
2023/12/02 00:38:33;;;;;;;16.30;12.20;;;;;;;-2.74;62.20;98903.53;10446852;28;20315;-72
2023/12/02 00:43:34;;;;;;;19.97;13.00;;;;;;;-2.16;61.49;98731.09;10472174;28;20238;-72
2023/12/02 00:48:36;;;;;;;17.03;12.27;;;;;;;-2.84;63.05;98871.97;10459322;28;20312;-72
2023/12/02 00:53:38;;;;;;;16.67;12.93;;;;;;;-2.75;62.80;98824.09;10467398;28;20337;-73
2023/12/02 00:58:40;;;;;;;17.53;11.90;;;;;;;-1.96;61.10;98703.22;10473264;28;20314;-72
2023/12/02 01:03:42;;;;;;;13.87;11.07;;;;;;;-3.28;62.48;98997.44;10462866;28;20247;-72
2023/12/02 01:08:44;;;;;;;17.93;12.53;;;;;;;-1.77;60.71;98688.53;10472569;28;20314;-70
2023/12/02 01:13:45;;;;;;;15.67;12.10;;;;;;;-2.06;60.33;98799.34;10463014;28;20710;-70
2023/12/02 01:18:47;;;;;;;15.33;10.70;;;;;;;-2.35;60.46;98907.38;10463786;28;20323;-70
2023/12/02 01:23:49;;;;;;;17.30;12.23;;;;;;;-2.27;60.06;98880.56;10442036;28;20247;-71
2023/12/02 01:28:51;;;;;;;17.87;12.27;;;;;;;-1.17;59.51;98612.47;10463224;28;20227;-70
2023/12/02 01:33:52;;;;;;;17.77;11.73;;;;;;;-2.28;61.37;98836.16;10467295;28;20248;-73
2023/12/02 01:38:54;;;;;;;17.97;12.37;;;;;;;-2.99;61.99;98993.59;10465993;28;20294;-70
2023/12/02 01:43:56;;;;;;;19.70;12.27;;;;;;;-1.96;60.65;98783.69;10466025;28;20240;-70
2023/12/02 01:48:59;;;;;;;19.23;12.73;;;;;;;-2.24;61.09;98861.97;10465672;28;20461;-70
2023/12/02 01:54:02;;;;;;;18.87;13.03;;;;;;;-2.98;61.48;99043.22;10464462;28;20235;-73
2023/12/02 01:59:04;;;;;;;17.57;11.67;;;;;;;-1.44;59.86;98699.72;10456381;28;20236;-71
2023/12/02 02:04:05;;;;;;;16.50;11.97;;;;;;;-2.23;60.19;98897.72;10450144;28;20239;-71
2023/12/02 02:09:08;;;;;;;15.70;11.53;;;;;;;-2.02;60.75;98765.81;10459690;28;20227;-70
2023/12/02 02:14:10;;;;;;;16.90;11.60;;;;;;;-2.31;60.69;98868.66;10462661;28;20223;-70
2023/12/02 02:19:12;;;;;;;14.87;11.50;;;;;;;-1.88;59.67;98814.50;10458180;28;20315;-70
2023/12/02 02:24:14;;;;;;;14.93;11.80;;;;;;;-1.72;60.58;98743.22;10460314;28;20601;-70
2023/12/02 02:29:16;;;;;;;17.07;11.90;;;;;;;-3.02;61.43;99039.16;10449395;28;20726;-70
2023/12/02 02:34:18;;;;;;;14.03;10.20;;;;;;;-2.55;61.37;98927.31;10459345;28;20397;-70
2023/12/02 02:39:20;;;;;;;16.90;11.87;;;;;;;-2.67;61.09;98944.81;10457226;28;20705;-70
2023/12/02 02:44:22;;;;;;;15.40;11.33;;;;;;;-2.60;60.77;98950.41;10460768;28;20231;-71
2023/12/02 02:49:24;;;;;;;10.87;8.30;;;;;;;-3.53;61.96;99113.50;10466162;28;20231;-72
2023/12/02 02:54:25;;;;;;;12.70;10.33;;;;;;;-2.38;60.02;98901.56;10459161;28;20230;-71
2023/12/02 02:59:28;;;;;;;11.37;9.17;;;;;;;-3.35;60.60;99134.03;10457334;28;20227;-73
2023/12/02 03:04:29;;;;;;;12.03;9.97;;;;;;;-2.74;60.88;98872.91;10459966;28;20239;-73
2023/12/02 03:09:31;;;;;;;16.77;10.97;;;;;;;-3.02;60.46;98993.84;10463242;28;20243;-73
2023/12/02 03:14:33;;;;;;;11.27;8.90;;;;;;;-3.44;60.48;99125.91;10464219;28;20235;-71
2023/12/02 03:19:35;;;;;;;16.20;10.77;;;;;;;-2.07;58.49;98829.16;10462596;28;20236;-71
2023/12/02 03:24:39;;;;;;;14.73;11.03;;;;;;;-2.59;58.51;99028.06;10463764;28;20234;-73
2023/12/02 03:29:41;;;;;;;11.37;8.97;;;;;;;-2.77;58.56;99074.00;10460260;28;21355;-73
2023/12/02 03:34:43;;;;;;;11.73;9.00;;;;;;;-2.86;58.33;99097.28;10460337;28;20250;-73
2023/12/02 03:39:45;;;;;;;10.93;8.90;;;;;;;-3.11;58.72;99085.16;10454783;28;20239;-73
2023/12/02 03:44:46;;;;;;;10.73;9.10;;;;;;;-2.07;57.18;98893.84;10459663;28;20256;-73
2023/12/02 03:49:48;;;;;;;11.10;8.57;;;;;;;-2.89;58.84;98984.09;10476298;28;20224;-73
2023/12/02 03:54:50;;;;;;;11.57;8.73;;;;;;;-2.72;58.12;99032.56;10465993;28;20222;-73
2023/12/02 03:59:51;;;;;;;12.63;8.00;;;;;;;-3.12;58.50;99090.50;10475520;28;20245;-73
2023/12/02 04:04:53;;;;;;;12.33;8.40;;;;;;;-2.69;58.16;98965.06;10472722;28;20275;-73
2023/12/02 04:09:55;;;;;;;9.50;7.30;;;;;;;-2.78;57.60;99033.03;10475437;28;20242;-73
2023/12/02 04:14:57;;;;;;;11.47;8.10;;;;;;;-2.09;56.57;98878.22;10455546;28;20232;-73
2023/12/02 04:20:08;;;;;;;10.53;8.27;;;;;;;-1.37;54.65;98906.38;10475588;28;20243;-73
2023/12/02 04:25:10;;;;;;;9.97;7.97;;;;;;;-2.33;56.21;99072.38;10454621;28;20281;-73
2023/12/02 04:30:12;;;;;;;12.27;9.70;;;;;;;-1.90;55.40;99008.72;10477912;28;20259;-73
2023/12/02 04:35:14;;;;;;;12.17;8.97;;;;;;;-1.69;54.66;98956.28;10459510;28;20242;-73
2023/12/02 04:40:16;;;;;;;10.67;7.97;;;;;;;-3.07;56.51;99208.78;10471246;28;20229;-73
2023/12/02 04:45:17;;;;;;;12.33;8.57;;;;;;;-2.57;56.60;99073.31;10477440;28;20650;-73
2023/12/02 04:50:19;;;;;;;11.03;9.07;;;;;;;-1.37;54.42;98900.31;10472069;28;20254;-73
2023/12/02 04:55:21;;;;;;;9.40;8.20;;;;;;;-1.64;54.80;98992.66;10473292;28;20658;-70
2023/12/02 05:00:23;;;;;;;9.43;8.27;;;;;;;-2.30;55.50;99096.56;10453078;28;20317;-73
2023/12/02 05:05:25;;;;;;;11.90;9.20;;;;;;;-2.25;55.76;99069.19;10474899;28;20257;-73
2023/12/02 05:10:26;;;;;;;11.63;8.40;;;;;;;-2.06;55.67;99034.47;10473660;28;20235;-73
2023/12/02 05:15:28;;;;;;;11.57;8.70;;;;;;;-2.06;55.08;99094.78;10469895;28;20223;-72
2023/12/02 05:20:30;;;;;;;10.27;8.87;;;;;;;-3.37;55.46;99455.16;10455813;28;20286;-72
2023/12/02 05:25:31;;;;;;;11.80;8.87;;;;;;;-2.21;55.41;99147.44;10478173;28;20535;-72
2023/12/02 05:30:34;;;;;;;12.83;9.37;;;;;;;-2.26;55.21;99198.53;10465660;28;20215;-73
2023/12/02 05:35:36;;;;;;;11.60;8.77;;;;;;;-2.82;55.69;99328.34;10474651;28;20297;-73
2023/12/02 05:40:38;;;;;;;10.57;8.20;;;;;;;-3.38;56.84;99313.03;10473449;28;20207;-72
2023/12/02 05:45:39;;;;;;;9.80;7.67;;;;;;;-3.42;56.63;99327.25;10472506;28;20228;-72
2023/12/02 05:50:41;;;;;;;11.57;9.30;;;;;;;-2.09;55.71;99032.91;10471348;28;20326;-72
2023/12/02 05:55:42;;;;;;;8.67;6.63;;;;;;;-2.90;54.93;99328.06;10473733;28;20293;-73
2023/12/02 06:00:44;;;;;;;9.77;8.37;;;;;;;-2.00;54.83;99036.59;10467146;28;20685;-73
2023/12/02 06:05:46;;;;;;;10.80;8.47;;;;;;;-2.83;55.74;99223.72;10457696;28;20239;-72
2023/12/02 06:10:47;;;;;;;9.50;7.53;;;;;;;-2.23;56.16;99006.97;10435022;28;20232;-72
2023/12/02 06:15:49;;;;;;;11.37;7.53;;;;;;;-2.41;55.45;99099.16;10446962;28;20261;-73
2023/12/02 06:20:51;;;;;;;10.47;7.77;;;;;;;-2.85;55.22;99247.38;10424913;28;20263;-72
2023/12/02 06:25:52;;;;;;;7.97;6.63;;;;;;;-3.05;56.34;99246.16;10440460;28;20257;-72
2023/12/02 06:30:54;;;;;;;8.40;6.33;;;;;;;-2.77;55.56;99236.38;10446170;28;20556;-72
2023/12/02 06:35:56;;;;;;;7.17;6.47;;;;;;;-3.57;56.33;99386.72;10447685;28;20292;-73
2023/12/02 06:40:57;;;;;;;7.37;6.33;;;;;;;-3.83;56.77;99449.41;10444845;28;20238;-73
2023/12/02 06:45:59;;;;;;;7.43;6.67;;;;;;;-2.42;54.51;99151.72;10439120;28;20246;-72
2023/12/02 06:51:01;;;;;;;7.17;6.47;;;;;;;-3.15;55.52;99292.25;10421707;28;20314;-73
2023/12/02 06:56:02;;;;;;;8.10;6.97;;;;;;;-2.73;54.72;99259.59;10439166;28;20481;-73
2023/12/02 07:01:04;;;;;;;8.23;6.70;;;;;;;-2.30;54.62;99132.44;10437720;28;20235;-72
2023/12/02 07:06:06;;;;;;;7.03;6.00;;;;;;;-3.27;55.80;99328.84;10512349;28;20245;-73
2023/12/02 07:11:08;;;;;;;7.10;6.37;;;;;;;-2.75;54.14;99357.56;10525415;28;20241;-73
2023/12/02 07:16:10;;;;;;;8.17;6.73;;;;;;;-2.08;53.72;99184.03;10520896;28;20223;-72
2023/12/02 07:21:12;;;;;;;8.13;6.67;;;;;;;-3.40;55.33;99432.66;10520549;28;20312;-72
2023/12/02 07:26:14;;;;;;;7.70;6.93;;;;;;;-3.38;55.56;99406.41;10506070;28;20234;-72
2023/12/02 07:31:17;;;;;;;8.33;7.43;;;;;;;-2.76;53.82;99375.06;10518708;28;20669;-72
2023/12/02 07:36:19;;;;;;;6.70;6.00;;;;;;;-3.43;55.37;99459.84;10527357;28;20670;-72
2023/12/02 07:41:20;;;;;;;6.87;6.13;;;;;;;-2.20;54.06;99203.34;10511894;28;20287;-72
2023/12/02 07:46:22;;;;;;;6.47;5.70;;;;;;;-3.22;54.42;99498.63;10525518;28;20233;-72
2023/12/02 07:51:24;;;;;;;6.50;5.87;;;;;;;-3.10;55.00;99411.44;10515625;28;20235;-73
2023/12/02 07:56:25;;;;;;;6.97;5.23;;;;;;;-2.91;54.99;99349.97;10494488;28;20572;-72
2023/12/02 08:01:27;;;;;;;5.80;5.13;;;;;;;-3.49;55.19;99519.59;10514456;28;20235;-72
2023/12/02 08:06:29;;;;;;;9.80;7.60;;;;;;;-3.16;54.55;99481.69;10523422;28;20242;-73
2023/12/02 08:11:31;;;;;;;9.53;8.20;;;;;;;-2.30;53.50;99336.88;10523713;28;20323;-72
2023/12/02 08:16:33;;;;;;;5.87;5.27;;;;;;;-2.11;52.94;99323.22;10519830;28;20748;-72
2023/12/02 08:21:34;;;;;;;6.47;5.87;;;;;;;-2.63;53.25;99465.88;10503905;28;20291;-72
2023/12/02 08:26:36;;;;;;;7.10;6.37;;;;;;;-2.80;53.09;99559.56;10521818;28;20345;-72
2023/12/02 08:31:37;;;;;;;5.73;5.13;;;;;;;-2.57;53.92;99386.88;10524807;28;20787;-72
2023/12/02 08:36:41;;;;;;;6.33;5.73;;;;;;;-2.82;53.25;99530.00;10507601;28;20235;-72
2023/12/02 08:41:43;;;;;;;6.23;5.63;;;;;;;-2.72;53.27;99462.13;10525247;28;20249;-72
2023/12/02 08:46:45;;;;;;;7.87;6.77;;;;;;;-1.52;52.69;99212.06;10501882;28;20656;-72
2023/12/02 08:51:47;;;;;;;5.70;5.03;;;;;;;-1.53;52.00;99318.03;10485814;28;20242;-72
2023/12/02 08:56:50;;;;;;;6.37;5.50;;;;;;;-3.14;53.44;99656.00;10479996;28;20235;-72
2023/12/02 09:01:52;;;;;;;7.37;5.80;;;;;;;-2.53;52.84;99503.59;10498136;28;20239;-72
2023/12/02 09:06:53;;;;;;;5.90;5.30;;;;;;;-1.87;52.95;99333.66;10517976;28;20316;-72
2023/12/02 09:11:55;;;;;;;5.47;4.97;;;;;;;-2.41;53.60;99460.81;10522971;28;20261;-72
2023/12/02 09:16:57;;;;;;;5.90;5.40;;;;;;;-2.33;53.30;99447.16;10507024;28;20291;-72
2023/12/02 09:21:59;;;;;;;5.60;5.00;;;;;;;-1.69;51.94;99404.09;10514388;28;20709;-73
2023/12/02 09:27:05;;;;;;;7.63;5.97;;;;;;;-2.67;52.98;99609.34;10500962;28;20713;-73
2023/12/02 09:32:28;;;;;;;7.70;6.63;;;;;;;-1.60;51.89;99403.41;10506140;28;20626;-72
2023/12/02 09:37:54;;;;;;;6.40;5.80;;;;;;;-0.29;50.34;99306.53;10519580;28;20230;-73
2023/12/02 09:43:22;;;;;;;6.90;5.80;;;;;;;-1.22;51.90;99387.38;10504905;28;20271;-73
2023/12/02 09:48:28;;;;;;;5.67;5.07;;;;;;;-0.62;51.35;99330.16;10487317;28;20254;-73
2023/12/02 09:54:03;;;;;;;7.20;6.10;;;;;;;-1.79;52.31;99608.56;10482131;28;20706;-73
2023/12/02 09:59:19;;;;;;;6.47;5.67;;;;;;;-1.39;51.49;99521.72;10481614;28;20465;-73
2023/12/02 10:04:36;;;;;;;7.33;6.63;;;;;;;-1.24;51.46;99456.72;10507214;28;20254;-73
2023/12/02 10:10:19;;;;;;;6.60;5.57;;;;;;;-1.72;52.33;99498.78;10515462;28;20391;-73
2023/12/02 10:15:27;;;;;;;10.07;7.80;;;;;;;-1.02;51.79;99324.59;10445239;28;20700;-73
2023/12/02 10:20:33;;;;;;;5.40;4.90;;;;;;;-2.30;52.80;99641.75;10494676;28;20263;-73
2023/12/02 10:25:54;;;;;;;5.83;5.23;;;;;;;-2.70;52.83;99749.22;10483944;28;20260;-73
2023/12/02 10:31:02;;;;;;;5.80;5.13;;;;;;;-0.25;50.70;99261.47;10482187;28;20861;-72
2023/12/02 10:36:05;;;;;;;5.23;4.73;;;;;;;-1.12;50.67;99508.31;10484065;28;20226;-73
2023/12/02 10:41:19;;;;;;;6.13;5.10;;;;;;;-1.87;51.38;99629.25;10485324;28;20238;-73
2023/12/02 10:46:22;;;;;;;5.40;4.90;;;;;;;-1.61;50.82;99539.03;10487711;28;20318;-73
2023/12/02 10:51:26;;;;;;;5.47;4.93;;;;;;;-0.91;50.48;99416.50;10481854;28;20233;-73
2023/12/02 10:56:30;;;;;;;5.70;5.10;;;;;;;-1.60;50.82;99581.84;10482901;28;20230;-73
2023/12/02 11:06:23;;;;;;;6.47;5.90;;;;;;;-3.14;54.07;99598.41;10633899;27;20892;-72
2023/12/02 11:12:11;;;;;;;6.00;5.40;;;;;;;-2.79;53.79;99571.72;10556180;28;20258;-72
2023/12/02 11:17:50;;;;;;;6.43;5.80;;;;;;;-2.37;53.59;99430.81;10558333;28;20735;-72
2023/12/02 11:23:23;;;;;;;7.23;6.53;;;;;;;-2.66;53.95;99542.88;10525449;28;20230;-72
2023/12/02 11:28:34;;;;;;;8.17;7.13;;;;;;;-2.20;52.84;99455.84;10560698;28;20229;-72
2023/12/02 11:34:00;;;;;;;5.50;5.00;;;;;;;-2.70;54.02;99487.25;10542411;28;20762;-72
2023/12/02 11:39:14;;;;;;;6.03;5.00;;;;;;;-3.52;54.44;99672.38;10562994;28;20236;-72
2023/12/02 11:44:16;;;;;;;5.20;4.70;;;;;;;-3.16;54.00;99646.59;10558412;28;20416;-72
2023/12/02 11:49:35;;;;;;;5.43;4.90;;;;;;;-3.17;53.14;99705.94;10557424;28;20229;-72
2023/12/02 11:55:03;;;;;;;6.37;4.90;;;;;;;-1.86;51.61;99510.28;10556250;28;20270;-72
2023/12/02 12:00:19;;;;;;;6.30;4.37;;;;;;;-2.74;52.95;99627.25;10551378;28;20321;-72
2023/12/02 12:05:42;;;;;;;5.37;4.87;;;;;;;-2.09;52.26;99470.78;10542930;28;20235;-72
2023/12/02 12:10:46;;;;;;;5.53;4.80;;;;;;;-2.48;52.32;99564.38;10557884;28;20234;-72
2023/12/02 12:15:48;;;;;;;5.73;5.13;;;;;;;-1.51;51.29;99428.97;10546072;28;20233;-72
2023/12/02 12:20:55;;;;;;;5.93;5.33;;;;;;;-1.65;50.69;99594.44;10530149;28;20234;-72
2023/12/02 12:26:00;;;;;;;5.70;5.20;;;;;;;-2.94;52.14;99792.72;10543258;28;20257;-72
2023/12/02 12:31:02;;;;;;;5.30;4.80;;;;;;;-1.16;51.03;99412.31;10528777;28;20343;-72
2023/12/02 12:36:04;;;;;;;4.77;4.37;;;;;;;-1.87;51.33;99647.59;10528906;28;20238;-72
2023/12/02 12:41:07;;;;;;;5.43;4.93;;;;;;;-2.28;51.74;99680.16;10528631;28;20323;-72
2023/12/02 12:46:11;;;;;;;8.87;8.07;;;;;;;-1.94;51.94;99619.16;10529165;28;20262;-72
2023/12/02 12:51:16;;;;;;;5.40;4.90;;;;;;;-2.48;52.64;99677.91;10526026;28;20697;-72
2023/12/02 12:56:47;;;;;;;5.93;5.33;;;;;;;-2.69;52.94;99756.16;10526800;28;20242;-72
2023/12/02 13:02:27;;;;;;;5.93;5.07;;;;;;;-1.49;51.53;99541.72;10513858;28;20269;-72
2023/12/02 13:07:40;;;;;;;4.97;4.50;;;;;;;-2.66;52.06;99873.00;10490231;28;20357;-73
2023/12/02 13:12:45;;;;;;;5.40;4.90;;;;;;;-1.46;50.78;99662.19;10545613;22;20334;-35
2023/12/02 13:17:47;;;;;;;5.50;5.00;;;;;;;-1.67;51.74;99583.22;10570045;27;20232;-35
2023/12/02 13:22:52;;;;;;;5.17;4.57;;;;;;;-2.09;51.67;99722.50;10575970;27;20335;-36
2023/12/02 13:28:02;;;;;;;5.57;4.90;;;;;;;-1.36;50.72;99610.75;10552862;22;20735;-40
2023/12/02 13:33:35;;;;;;;5.43;4.93;;;;;;;-2.42;51.84;99815.56;10508111;28;20231;-38
2023/12/02 13:39:03;;;;;;;5.83;5.27;;;;;;;-1.77;51.08;99743.09;10501723;28;20239;-41
2023/12/02 13:44:11;;;;;;;5.00;4.50;;;;;;;-2.09;51.91;99771.50;10514621;28;20264;-38
2023/12/02 13:49:20;;;;;;;5.10;4.60;;;;;;;-2.39;52.27;99804.91;10515594;28;20239;-39
2023/12/02 13:54:51;;;;;;;5.00;4.60;;;;;;;-2.50;51.66;99906.94;10517686;28;20696;-40
2023/12/02 14:00:04;;;;;;;5.70;5.20;;;;;;;-1.05;50.22;99609.31;10512059;28;20629;-37
2023/12/02 14:05:15;;;;;;;5.60;5.10;;;;;;;-0.89;50.19;99669.47;10513493;28;20230;-37
2023/12/02 14:10:21;;;;;;;7.43;6.73;;;;;;;-0.63;49.11;99695.59;10526106;28;20625;-39
2023/12/02 14:15:48;;;;;;;14.90;9.93;;;;;;;-0.36;48.82;99723.44;10507542;28;20326;-41
2023/12/02 14:21:09;;;;;;;13.10;9.30;;;;;;;-1.27;48.83;99950.56;10512116;28;20313;-41
2023/12/02 14:26:22;;;;;;;16.73;11.60;;;;;;;-1.06;48.83;99890.47;10514070;28;20243;-37
2023/12/02 14:32:11;;;;;;;11.33;8.33;;;;;;;-0.98;49.19;99890.78;10523644;28;20637;-38
2023/12/02 14:37:39;;;;;;;7.57;6.33;;;;;;;-0.48;48.28;99822.47;10352690;28;20602;-40
2023/12/02 14:43:05;;;;;;;6.83;6.13;;;;;;;-1.44;49.73;99986.66;10502955;28;20710;-37
2023/12/02 14:48:08;;;;;;;6.77;5.07;;;;;;;0.09;47.47;99789.31;10510408;28;20281;-37
2023/12/02 14:53:16;;;;;;;8.10;6.83;;;;;;;-0.94;48.77;99950.06;10500003;28;20317;-39
2023/12/02 14:58:20;;;;;;;9.30;7.77;;;;;;;-0.55;48.16;99931.63;10503428;28;20230;-38
2023/12/02 15:03:26;;;;;;;12.03;8.83;;;;;;;-0.12;48.73;99818.91;10516545;28;20306;-39
2023/12/02 15:08:37;;;;;;;11.17;8.00;;;;;;;-0.53;47.98;100006.00;10519172;28;20779;-39
2023/12/02 15:13:39;;;;;;;7.37;6.77;;;;;;;-1.90;50.22;100214.41;10518953;28;20227;-40
2023/12/02 15:18:41;;;;;;;7.23;6.53;;;;;;;-1.97;50.36;100166.72;10514513;28;20247;-38
2023/12/02 15:23:44;;;;;;;7.23;6.53;;;;;;;-0.05;48.85;99790.34;10494662;28;20228;-37
2023/12/02 15:28:48;;;;;;;5.30;4.80;;;;;;;-1.30;49.07;100016.41;10518110;28;20235;-40
2023/12/02 15:33:52;;;;;;;6.20;5.63;;;;;;;-2.18;49.90;100121.69;10484867;28;20620;-37
2023/12/02 15:38:55;;;;;;;5.97;5.40;;;;;;;-1.48;49.60;99979.94;10501633;28;20238;-37
2023/12/02 15:43:58;;;;;;;6.33;5.53;;;;;;;-1.27;49.96;99883.13;10518621;28;20317;-38
2023/12/02 15:49:01;;;;;;;7.07;6.40;;;;;;;-1.87;48.53;100125.88;10502565;28;20512;-39
2023/12/02 15:54:03;;;;;;;6.10;5.50;;;;;;;-2.34;49.82;100197.78;10514482;28;20219;-40
2023/12/02 15:59:12;;;;;;;6.30;5.70;;;;;;;-1.58;49.19;99961.34;10515672;28;20230;-38
2023/12/02 16:04:15;;;;;;;5.83;5.27;;;;;;;-2.59;50.02;100180.03;10508574;28;20711;-39
2023/12/02 16:09:22;;;;;;;6.73;5.83;;;;;;;-2.56;49.67;100165.00;10520705;28;20324;-40
2023/12/02 16:14:25;;;;;;;6.47;5.87;;;;;;;-3.11;49.85;100220.50;10514250;28;20622;-41
2023/12/02 16:19:29;;;;;;;5.97;5.37;;;;;;;-3.30;51.16;100179.63;10513517;28;20734;-41
2023/12/02 16:24:32;;;;;;;6.43;5.83;;;;;;;-3.41;50.98;100180.19;10524785;28;20231;-39
2023/12/02 16:29:35;;;;;;;7.30;5.70;;;;;;;-3.08;50.02;100204.63;10514550;28;20715;-38
2023/12/02 16:34:40;;;;;;;7.00;6.00;;;;;;;-2.57;49.73;100126.59;10518801;28;20258;-39
2023/12/02 16:39:44;;;;;;;6.27;5.67;;;;;;;-3.00;50.20;100243.47;10510367;28;20708;-40
2023/12/02 16:44:45;;;;;;;7.17;5.70;;;;;;;-3.31;50.31;100263.47;10517327;28;20269;-39
2023/12/02 16:49:47;;;;;;;8.33;6.07;;;;;;;-2.35;49.81;100000.34;10516252;28;20283;-38
2023/12/02 16:54:49;;;;;;;7.03;6.07;;;;;;;-3.93;49.79;100454.13;10517164;28;20763;-39
2023/12/02 16:59:51;;;;;;;6.87;5.83;;;;;;;-2.80;49.44;100167.25;10514543;28;20281;-43
2023/12/02 17:04:53;;;;;;;7.43;6.37;;;;;;;-2.57;48.55;100183.41;10512565;28;20735;-38
2023/12/02 17:09:55;;;;;;;7.17;6.00;;;;;;;-2.80;49.15;100169.84;10508341;28;20591;-39
2023/12/02 17:15:05;;;;;;;7.27;6.57;;;;;;;-3.95;50.64;100433.28;10508670;28;20691;-38
2023/12/02 17:20:12;;;;;;;6.80;6.10;;;;;;;-3.95;50.94;100346.16;10508511;28;20237;-40
2023/12/02 17:25:45;;;;;;;6.90;6.20;;;;;;;-2.90;50.16;100071.78;10511322;28;20226;-41
2023/12/02 17:30:47;;;;;;;7.60;6.80;;;;;;;-4.60;51.32;100425.88;10523663;28;20326;-37
2023/12/02 17:35:48;;;;;;;7.83;7.03;;;;;;;-2.72;49.66;100075.13;10514540;28;20623;-40
2023/12/02 17:40:50;;;;;;;9.63;7.33;;;;;;;-3.60;50.20;100328.66;10497327;28;20272;-37
2023/12/02 17:45:52;;;;;;;7.33;6.47;;;;;;;-3.18;49.03;100318.59;10512567;28;20240;-39
2023/12/02 17:50:54;;;;;;;8.07;6.40;;;;;;;-3.68;50.34;100323.81;10518084;28;20592;-40
2023/12/02 17:55:56;;;;;;;8.73;7.30;;;;;;;-3.12;50.29;100148.09;10507720;28;20234;-39
2023/12/02 18:00:57;;;;;;;7.70;6.90;;;;;;;-3.09;50.25;100161.84;10508713;28;20710;-40
2023/12/02 18:05:59;;;;;;;9.20;6.77;;;;;;;-1.82;48.14;100037.22;10514803;28;20300;-41
2023/12/02 18:11:01;;;;;;;9.77;7.80;;;;;;;-1.86;47.49;100135.44;10521037;28;20238;-39
2023/12/02 18:16:03;;;;;;;9.17;7.00;;;;;;;-2.71;48.69;100300.34;10517531;28;20287;-39
2023/12/02 18:21:05;;;;;;;8.13;7.13;;;;;;;-3.37;49.41;100348.38;10516694;28;20280;-41
2023/12/02 18:26:07;;;;;;;9.67;7.23;;;;;;;-2.51;48.77;100128.88;10516953;28;20255;-40
2023/12/02 18:31:09;;;;;;;8.70;7.13;;;;;;;-3.01;49.12;100240.03;10516182;28;20328;-39
2023/12/02 18:36:11;;;;;;;8.17;6.77;;;;;;;-4.24;49.37;100550.53;10521607;28;20214;-40
2023/12/02 18:41:13;;;;;;;7.93;7.10;;;;;;;-2.31;47.98;100093.59;10511324;28;20228;-39
2023/12/02 18:46:14;;;;;;;8.27;7.40;;;;;;;-2.78;48.70;100196.81;10512501;28;20619;-39
2023/12/02 18:51:16;;;;;;;9.47;7.20;;;;;;;-3.71;49.29;100446.91;10503829;28;20284;-37
2023/12/02 18:56:18;;;;;;;14.77;10.30;;;;;;;-3.29;49.39;100368.91;10508211;28;20206;-43
2023/12/02 19:01:20;;;;;;;10.90;8.60;;;;;;;-2.48;48.07;100202.03;10508103;28;20313;-41
2023/12/02 19:06:22;;;;;;;12.83;8.17;;;;;;;-2.07;47.49;100184.81;10520689;28;20234;-38
2023/12/02 19:11:24;;;;;;;8.33;7.40;;;;;;;-1.49;47.05;100156.75;10519828;28;20253;-39
2023/12/02 19:16:25;;;;;;;10.37;9.37;;;;;;;-2.11;47.31;100406.22;10515567;28;20210;-40
2023/12/02 19:21:27;;;;;;;11.60;9.20;;;;;;;-0.43;46.52;100034.16;10517385;28;20654;-37
2023/12/02 19:26:29;;;;;;;8.70;7.23;;;;;;;-1.12;46.98;100241.09;10519551;28;20230;-41
2023/12/02 19:31:30;;;;;;;13.10;9.13;;;;;;;-1.48;47.61;100325.59;10504340;28;20232;-41
2023/12/02 19:36:32;;;;;;;11.20;9.40;;;;;;;-1.09;46.95;100238.25;10496380;28;20266;-41
2023/12/02 19:41:37;;;;;;;12.83;9.23;;;;;;;-2.33;47.61;100425.78;10525890;28;20221;-42
2023/12/02 19:46:40;;;;;;;11.57;9.03;;;;;;;-1.39;47.41;100214.78;10529643;28;20245;-39
2023/12/02 19:51:41;;;;;;;10.77;8.87;;;;;;;-2.34;47.33;100400.50;10516502;28;20235;-37
2023/12/02 19:56:44;;;;;;;21.50;14.77;;;;;;;-2.36;47.62;100430.34;10514938;28;20238;-41
2023/12/02 20:01:46;;;;;;;12.60;9.50;;;;;;;-2.13;47.25;100387.94;10526714;28;20554;-42
2023/12/02 20:06:48;;;;;;;10.67;7.70;;;;;;;-2.58;47.43;100477.84;10527295;28;20330;-41
2023/12/02 20:11:50;;;;;;;21.73;14.37;;;;;;;-0.88;46.54;100185.28;10518867;28;20612;-42
2023/12/02 20:16:53;;;;;;;17.53;12.77;;;;;;;-1.14;46.30;100340.16;10526787;28;20263;-40
2023/12/02 20:21:54;;;;;;;11.83;9.60;;;;;;;-0.90;46.61;100297.53;10529566;28;20231;-40
2023/12/02 20:26:56;;;;;;;13.27;10.37;;;;;;;-1.04;47.01;100315.00;10522901;28;20265;-41
2023/12/02 20:31:58;;;;;;;10.07;7.77;;;;;;;-1.82;47.95;100477.16;10514645;28;20218;-39
2023/12/02 20:37:00;;;;;;;9.90;8.03;;;;;;;-1.84;48.04;100492.16;10511837;28;20275;-41
2023/12/02 20:42:01;;;;;;;10.27;8.40;;;;;;;-1.65;47.45;100486.72;10521099;28;20226;-40
2023/12/02 20:47:03;;;;;;;8.97;7.87;;;;;;;-1.52;48.22;100381.84;10515253;28;20241;-42
2023/12/02 20:52:05;;;;;;;10.17;8.53;;;;;;;-0.85;47.22;100261.28;10522232;28;20236;-42
2023/12/02 20:57:07;;;;;;;14.43;10.67;;;;;;;-1.46;48.25;100386.72;10521550;28;20222;-39
2023/12/02 21:02:09;;;;;;;13.77;9.83;;;;;;;-1.45;47.57;100304.41;10516193;28;20301;-40
2023/12/02 21:07:11;;;;;;;12.60;10.43;;;;;;;-2.11;48.36;100519.00;10503946;28;20243;-41
2023/12/02 21:12:13;;;;;;;13.70;11.27;;;;;;;-1.63;48.14;100422.72;10515689;28;20302;-39
2023/12/02 21:17:14;;;;;;;13.80;10.63;;;;;;;-1.20;47.62;100319.50;10522111;28;20218;-37
2023/12/02 21:22:16;;;;;;;12.33;9.57;;;;;;;-1.92;48.23;100501.31;10525763;28;20511;-42
2023/12/02 21:27:18;;;;;;;11.83;9.03;;;;;;;-1.60;48.29;100485.53;10514820;28;20711;-41
2023/12/02 21:32:22;;;;;;;12.10;8.90;;;;;;;-0.97;47.37;100331.22;10520721;28;20214;-42
2023/12/02 21:37:24;;;;;;;11.17;8.23;;;;;;;-1.70;48.09;100509.75;10497053;28;20243;-38
2023/12/02 21:42:26;;;;;;;11.77;9.43;;;;;;;-1.51;47.52;100405.41;10518539;28;20620;-39
2023/12/02 21:47:29;;;;;;;12.37;9.80;;;;;;;-0.90;46.98;100352.69;10494805;28;20245;-37
2023/12/02 21:52:33;;;;;;;12.73;9.67;;;;;;;-1.55;47.77;100501.00;10525890;28;20303;-41
2023/12/02 21:57:35;;;;;;;11.67;9.47;;;;;;;-2.18;48.38;100628.63;10476999;28;20236;-42
2023/12/02 22:02:38;;;;;;;11.40;9.67;;;;;;;-1.23;47.87;100362.53;10522788;28;20225;-39
2023/12/02 22:07:39;;;;;;;13.17;10.30;;;;;;;-1.59;48.85;100374.34;10521662;28;20284;-40
2023/12/02 22:12:41;;;;;;;13.53;10.60;;;;;;;-1.43;47.64;100410.16;10513688;28;20230;-40
2023/12/02 22:17:43;;;;;;;13.10;10.80;;;;;;;-2.35;48.29;100628.66;10521765;28;20244;-41
2023/12/02 22:22:53;;;;;;;13.93;10.27;;;;;;;-1.41;47.46;100403.91;10517384;28;20239;-37
2023/12/02 22:28:04;;;;;;;11.77;9.47;;;;;;;-2.22;47.86;100603.50;10520169;28;20235;-41
2023/12/02 22:33:06;;;;;;;13.47;10.17;;;;;;;-0.64;46.83;100277.44;10519837;28;20223;-42
2023/12/02 22:38:43;;;;;;;13.83;11.47;;;;;;;-1.77;48.45;100397.28;10517984;28;20246;-40
2023/12/02 22:43:49;;;;;;;13.03;10.07;;;;;;;-1.17;47.42;100361.34;10507452;28;20230;-42
2023/12/02 22:48:51;;;;;;;12.67;10.40;;;;;;;-2.68;49.77;100538.63;10518341;28;20677;-39
2023/12/02 22:53:55;;;;;;;13.97;10.23;;;;;;;-2.37;50.15;100377.06;10513140;28;20225;-40
2023/12/02 22:58:57;;;;;;;13.00;9.97;;;;;;;-2.20;49.48;100343.81;10513461;28;20235;-39
2023/12/02 23:04:35;;;;;;;12.30;9.40;;;;;;;-3.22;49.73;100638.19;10519260;28;20230;-41
2023/12/02 23:10:01;;;;;;;13.87;10.67;;;;;;;-2.08;49.64;100295.91;10511081;28;20238;-40
2023/12/02 23:15:14;;;;;;;14.63;10.43;;;;;;;-1.41;48.03;100266.56;10513265;28;20321;-42
2023/12/02 23:20:28;;;;;;;11.90;8.63;;;;;;;-4.23;50.48;100836.25;10518071;28;20851;-38
2023/12/02 23:25:30;;;;;;;10.43;7.87;;;;;;;-4.01;50.74;100792.66;10522340;28;20252;-41
2023/12/02 23:30:32;;;;;;;13.30;10.77;;;;;;;-3.52;50.29;100698.06;10520952;28;20299;-40